To NAV CANADA Home Page Login to a new session Search on AWWS site Feedback and Comments Disclaimer Vers la page française équivalente Tips FAQ What's new on the site To the Forecasts and Observations / NOTAM section To "File a Flight Plan" website Publications and other links Update of the User's profile FIC Telephone Numbers My Weather Data Folder Route Weather Data Regional Weather Data Local Weather Data To the Forecasts and Observations / NOTAM section
Request Generated 03/04/2015 at 20:14:54 UTC . Weather information available at that time is displayed.

METAR/TAF

CLYDE RIVER/NU    (show WxCam)

METAR CYCY 042000Z 31016KT 25SM IC DRSN SKC M29/M33 A2946 RMK SLP979=
METAR CYCY 041900Z 31017KT 25SM IC DRSN SKC M29/M32 A2948 RMK SLP986=
METAR CYCY 041800Z 30018KT 25SM IC DRSN SKC M29/M33 A2949 RMK SLP991=

TAF CYCY 041838Z 0419/0507 30018KT P6SM SKC TEMPO 0419/0507 5SM IC
BLSN
RMK NXT FCST BY 050100Z=
Your time UTC time
Weather data provided by Environment Canada and NAV CANADA